Terminal Aerodrome Forecast
Issued by NWS

Home | Current Version | Previous Version | Text Only | Print | Product List | Glossary On
Versions: 1 2 3 4 5 6 7 8 9 10 11 12 13 14 15 16 17 18 19 20 21 22 23 24 25 26 27
000
FTUS44 KFWD 051728
TAFDAL
TAF
KDAL 051728Z 0518/0618 15017KT P6SM BKN035 BKN100
     FM060000 15016KT P6SM VCTS BKN040CB
     FM060400 15017KT 6SM SHRA VCTS BKN018CB
     FM060900 16015KT P6SM BKN012
     FM061700 17015KT P6SM BKN024=

USA.gov is the U.S. government's official web portal to all federal, state and local government web resources and services.